createdAt,value
2018-10-17T00:00:53.500Z,13.80
2018-10-17T00:03:21.362Z,15.63
2018-10-17T00:05:49.149Z,16.47
2018-10-17T00:08:16.961Z,15.17
2018-10-17T00:10:44.775Z,13.30
2018-10-17T00:13:12.766Z,14.13
2018-10-17T00:15:40.424Z,18.53
2018-10-17T00:18:09.140Z,16.93
2018-10-17T00:20:36.930Z,15.87
2018-10-17T00:23:05.207Z,18.97
2018-10-17T00:25:33.058Z,17.70
2018-10-17T00:28:00.857Z,18.23
2018-10-17T00:30:30.277Z,17.07
2018-10-17T00:32:58.096Z,15.17
2018-10-17T00:35:25.845Z,18.03
2018-10-17T00:37:53.635Z,18.10
2018-10-17T00:40:23.332Z,15.33
2018-10-17T00:42:51.508Z,18.57
2018-10-17T00:45:19.291Z,15.43
2018-10-17T00:47:47.072Z,15.83
2018-10-17T00:50:14.834Z,16.00
2018-10-17T00:52:42.592Z,16.40
2018-10-17T00:55:10.411Z,17.50
2018-10-17T00:57:38.150Z,15.53
2018-10-17T01:00:06.128Z,17.77
2018-10-17T01:02:33.905Z,17.50
2018-10-17T01:05:02.185Z,18.13
2018-10-17T01:07:29.891Z,20.03
2018-10-17T01:09:57.686Z,20.40
2018-10-17T01:12:25.484Z,19.13
2018-10-17T01:14:53.258Z,17.63
2018-10-17T01:17:21.055Z,19.23
2018-10-17T01:19:48.828Z,16.00
2018-10-17T01:22:16.632Z,18.00
2018-10-17T01:24:44.456Z,18.40
2018-10-17T01:27:13.376Z,18.27
2018-10-17T01:29:41.134Z,17.37
2018-10-17T01:32:08.912Z,18.80
2018-10-17T01:34:36.696Z,17.07
2018-10-17T01:37:04.608Z,21.17
2018-10-17T01:39:33.199Z,18.87
2018-10-17T01:42:00.983Z,18.60
2018-10-17T01:44:28.782Z,17.83
2018-10-17T01:46:56.776Z,18.10
2018-10-17T01:49:24.486Z,16.80
2018-10-17T01:51:52.226Z,19.97
2018-10-17T01:54:22.664Z,17.70
2018-10-17T01:56:50.447Z,18.53
2018-10-17T01:59:18.236Z,17.63
2018-10-17T02:01:46.004Z,19.53
2018-10-17T02:04:13.848Z,25.27
2018-10-17T02:06:41.592Z,20.07
2018-10-17T02:09:09.402Z,19.00
2018-10-17T02:11:37.692Z,24.47
2018-10-17T02:14:05.553Z,20.43
2018-10-17T02:16:33.376Z,19.33
2018-10-17T02:19:01.230Z,23.00
2018-10-17T02:21:28.961Z,22.07
2018-10-17T02:23:57.732Z,22.00
2018-10-17T02:26:25.546Z,21.63
2018-10-17T02:28:53.357Z,24.77
2018-10-17T02:31:21.232Z,22.67
2018-10-17T02:33:52.828Z,24.27
2018-10-17T02:36:20.727Z,23.87
2018-10-17T02:38:48.568Z,18.80
2018-10-17T02:41:16.428Z,21.90
2018-10-17T02:43:44.221Z,21.50
2018-10-17T02:46:12.002Z,21.23
2018-10-17T02:48:39.812Z,20.57
2018-10-17T02:51:07.630Z,21.07
2018-10-17T02:53:35.456Z,20.70
2018-10-17T02:56:03.220Z,21.87
2018-10-17T02:58:30.966Z,28.40
2018-10-17T03:00:58.780Z,21.20
2018-10-17T03:03:26.534Z,21.87
2018-10-17T03:05:54.296Z,26.20
2018-10-17T03:08:22.410Z,20.80
2018-10-17T03:10:50.161Z,25.17
2018-10-17T03:13:18.010Z,21.53
2018-10-17T03:15:45.798Z,21.97
2018-10-17T03:18:14.241Z,21.27
2018-10-17T03:20:42.111Z,23.13
2018-10-17T03:23:09.925Z,21.37
2018-10-17T03:25:37.627Z,23.13
2018-10-17T03:28:05.498Z,25.53
2018-10-17T03:30:33.956Z,25.07
2018-10-17T03:33:01.699Z,23.07
2018-10-17T03:35:29.510Z,22.13
2018-10-17T03:37:57.295Z,21.37
2018-10-17T03:40:26.313Z,21.87
2018-10-17T03:42:54.225Z,22.70
2018-10-17T03:45:21.955Z,23.30
2018-10-17T03:47:49.780Z,26.83
2018-10-17T03:50:17.548Z,26.50
2018-10-17T03:52:45.849Z,25.17
2018-10-17T03:55:13.668Z,25.20
2018-10-17T03:57:41.345Z,26.13
2018-10-17T04:00:08.980Z,23.80
2018-10-17T04:02:37.027Z,21.30
2018-10-17T04:05:06.674Z,24.27
2018-10-17T04:07:34.513Z,22.80
2018-10-17T04:10:02.297Z,23.97
2018-10-17T04:12:30.031Z,23.50
2018-10-17T04:14:57.825Z,25.30
2018-10-17T04:17:25.606Z,22.83
2018-10-17T04:19:53.370Z,25.40
2018-10-17T04:22:21.204Z,26.30
2018-10-17T04:24:48.951Z,23.03
2018-10-17T04:27:16.739Z,26.50
2018-10-17T04:29:44.514Z,24.73
2018-10-17T04:32:12.300Z,24.97
2018-10-17T04:34:40.632Z,23.43
2018-10-17T04:37:08.488Z,25.83
2018-10-17T04:39:36.222Z,24.20
2018-10-17T04:42:04.117Z,29.70
2018-10-17T04:44:31.870Z,24.60
2018-10-17T04:46:59.690Z,26.43
2018-10-17T04:49:27.427Z,25.20
2018-10-17T04:51:55.188Z,27.30
2018-10-17T04:54:22.900Z,23.43
2018-10-17T04:56:50.691Z,24.97
2018-10-17T04:59:18.453Z,26.13
2018-10-17T05:01:46.574Z,26.23
2018-10-17T05:04:15.288Z,21.80
2018-10-17T05:06:46.189Z,26.53
2018-10-17T05:09:13.902Z,22.43
2018-10-17T05:11:41.864Z,23.60
2018-10-17T05:14:09.603Z,24.23
2018-10-17T05:16:37.379Z,24.03
2018-10-17T05:19:08.431Z,23.53
2018-10-17T05:21:37.132Z,28.80
2018-10-17T05:24:05.085Z,25.50
2018-10-17T05:26:32.932Z,25.83
2018-10-17T05:29:00.694Z,26.67
2018-10-17T05:31:28.480Z,22.17
2018-10-17T05:33:56.246Z,26.50
2018-10-17T05:36:24.161Z,22.43
2018-10-17T05:38:51.983Z,30.87
2018-10-17T05:41:26.493Z,22.53
2018-10-17T05:43:54.232Z,20.70
2018-10-17T05:46:22.373Z,23.07
2018-10-17T05:48:50.272Z,24.40
2018-10-17T05:51:18.036Z,22.23
2018-10-17T05:53:45.828Z,20.20
2018-10-17T05:56:13.567Z,28.10
2018-10-17T05:58:41.375Z,28.93
2018-10-17T06:01:10.643Z,25.53
2018-10-17T06:03:38.495Z,26.97
2018-10-17T06:06:06.231Z,25.73
2018-10-17T06:08:34.076Z,27.47
2018-10-17T06:11:01.911Z,27.30
2018-10-17T06:13:29.581Z,30.17
2018-10-17T06:15:57.316Z,27.17
2018-10-17T06:18:25.137Z,28.83
2018-10-17T06:20:52.903Z,28.60
2018-10-17T06:23:20.639Z,27.27
2018-10-17T06:25:48.457Z,27.83
2018-10-17T06:28:16.306Z,26.90
2018-10-17T06:30:44.124Z,30.63
2018-10-17T06:33:11.795Z,29.33
2018-10-17T06:35:40.123Z,29.27
2018-10-17T06:38:07.871Z,28.77
2018-10-17T06:40:35.656Z,25.57
2018-10-17T06:43:03.435Z,28.07
2018-10-17T06:45:31.167Z,31.63
2018-10-17T06:47:59.347Z,27.77
2018-10-17T06:50:27.067Z,31.73
2018-10-17T06:52:54.867Z,32.27
2018-10-17T06:55:22.690Z,29.73
2018-10-17T06:57:50.453Z,29.53
2018-10-17T07:00:18.276Z,29.33
2018-10-17T07:02:45.977Z,28.03
2018-10-17T07:05:16.923Z,31.57
2018-10-17T07:07:44.816Z,34.90
2018-10-17T07:10:13.425Z,32.23
2018-10-17T07:12:41.191Z,33.63
2018-10-17T07:15:09.035Z,34.73
2018-10-17T07:17:36.765Z,33.97
2018-10-17T07:20:05.564Z,31.93
2018-10-17T07:22:33.811Z,37.70
2018-10-17T07:25:01.630Z,36.07
2018-10-17T07:27:29.327Z,36.17
2018-10-17T07:29:57.151Z,36.33
2018-10-17T07:32:24.947Z,42.43
2018-10-17T07:34:52.717Z,37.07
2018-10-17T07:37:20.473Z,40.47
2018-10-17T07:39:48.265Z,40.50
2018-10-17T07:42:16.144Z,36.30
2018-10-17T07:44:43.822Z,40.43
2018-10-17T07:47:11.589Z,40.47
2018-10-17T07:49:39.347Z,44.27
2018-10-17T07:52:07.167Z,44.30
2018-10-17T07:54:34.927Z,47.13
2018-10-17T07:57:04.188Z,47.37
2018-10-17T07:59:32.019Z,50.40
2018-10-17T08:01:59.725Z,52.67
2018-10-17T08:04:30.770Z,49.73
2018-10-17T08:06:58.590Z,49.97
2018-10-17T08:09:26.369Z,52.90
2018-10-17T08:11:54.232Z,49.10
2018-10-17T08:14:22.042Z,49.37
2018-10-17T08:16:51.233Z,50.37
2018-10-17T08:19:19.039Z,49.50
2018-10-17T08:21:46.814Z,49.10
2018-10-17T08:24:14.815Z,50.37
2018-10-17T08:26:42.576Z,44.77
2018-10-17T08:29:10.337Z,46.97
2018-10-17T08:31:38.176Z,51.20
2018-10-17T08:34:07.888Z,50.40
2018-10-17T08:36:39.821Z,50.60
2018-10-17T08:39:08.645Z,46.93
2018-10-17T08:41:36.464Z,46.50
2018-10-17T08:44:04.637Z,46.43
2018-10-17T08:46:32.540Z,47.47
2018-10-17T08:49:00.440Z,49.60
2018-10-17T08:51:28.237Z,49.90
2018-10-17T08:53:57.014Z,49.83
2018-10-17T08:56:24.833Z,47.00
2018-10-17T08:58:53.063Z,45.47
2018-10-17T09:01:20.838Z,49.20
2018-10-17T09:03:48.692Z,48.17
2018-10-17T09:06:16.500Z,45.67
2018-10-17T09:08:44.200Z,48.73
2018-10-17T09:11:12.341Z,50.60
2018-10-17T09:13:40.096Z,48.10
2018-10-17T09:16:07.967Z,45.93
2018-10-17T09:18:35.734Z,41.00
2018-10-17T09:21:03.872Z,44.30
2018-10-17T09:23:31.343Z,39.73
2018-10-17T09:25:59.187Z,37.60
2018-10-17T09:28:27.711Z,37.77
2018-10-17T09:30:55.510Z,35.67
2018-10-17T09:33:23.431Z,39.43
2018-10-17T09:35:51.255Z,40.00
2018-10-17T09:38:19.031Z,44.83
2018-10-17T09:40:46.816Z,36.10
2018-10-17T09:43:16.433Z,38.57
2018-10-17T09:45:44.201Z,39.27
2018-10-17T09:48:12.042Z,38.50
2018-10-17T09:50:39.783Z,39.37
2018-10-17T09:53:07.547Z,34.90
2018-10-17T09:55:35.323Z,37.70
2018-10-17T09:58:03.161Z,36.63
2018-10-17T10:00:36.449Z,33.90
2018-10-17T10:03:04.284Z,35.37
2018-10-17T10:05:32.175Z,33.10
2018-10-17T10:07:59.939Z,33.40
2018-10-17T10:10:28.395Z,35.87
2018-10-17T10:12:56.167Z,35.77
2018-10-17T10:15:23.940Z,32.27
2018-10-17T10:17:51.725Z,37.40
2018-10-17T10:20:19.531Z,34.30
2018-10-17T10:22:47.281Z,32.87
2018-10-17T10:25:16.178Z,33.53
2018-10-17T10:27:43.863Z,27.77
2018-10-17T10:30:11.646Z,25.13
2018-10-17T10:32:39.442Z,32.77
2018-10-17T10:35:07.398Z,33.63
2018-10-17T10:37:35.127Z,30.67
2018-10-17T10:40:05.098Z,30.20
2018-10-17T10:42:33.635Z,30.13
2018-10-17T10:45:01.422Z,20.53
2018-10-17T10:47:29.267Z,20.20
2018-10-17T10:49:58.050Z,21.43
2018-10-17T10:52:32.515Z,19.87
2018-10-17T10:55:04.073Z,17.73
2018-10-17T10:57:31.863Z,19.73
2018-10-17T11:00:00.906Z,20.40
2018-10-17T11:02:28.597Z,19.70
2018-10-17T11:04:57.084Z,15.30
2018-10-17T11:07:24.877Z,18.43
2018-10-17T11:09:52.663Z,17.23
2018-10-17T11:12:23.236Z,17.23
2018-10-17T11:14:51.152Z,17.87
2018-10-17T11:17:18.833Z,18.50
2018-10-17T11:19:46.691Z,16.80
2018-10-17T11:22:14.787Z,17.07
2018-10-17T11:24:45.975Z,15.83
2018-10-17T11:27:14.119Z,16.63
2018-10-17T11:29:41.893Z,13.63
2018-10-17T11:32:09.831Z,15.47
2018-10-17T11:34:37.769Z,14.13
2018-10-17T11:37:06.325Z,17.73
2018-10-17T11:39:34.183Z,16.37
2018-10-17T11:42:02.009Z,15.00
2018-10-17T11:44:30.567Z,13.30
2018-10-17T11:46:59.118Z,13.57
2018-10-17T11:49:26.821Z,13.07
2018-10-17T11:51:55.065Z,14.77
2018-10-17T11:54:24.542Z,12.90
2018-10-17T11:56:53.863Z,14.00
2018-10-17T11:59:21.971Z,13.57
2018-10-17T12:01:49.649Z,14.80
2018-10-17T12:04:17.755Z,16.13
2018-10-17T12:06:45.689Z,14.37
2018-10-17T12:09:13.507Z,14.27
2018-10-17T12:11:41.317Z,13.03
2018-10-17T12:14:10.229Z,11.93
2018-10-17T12:16:38.005Z,9.90
2018-10-17T12:19:05.815Z,13.37
2018-10-17T12:21:35.441Z,11.90
2018-10-17T12:24:03.210Z,13.90
2018-10-17T12:26:31.547Z,10.37
2018-10-17T12:29:02.975Z,12.93
2018-10-17T12:31:30.746Z,10.37
2018-10-17T12:33:58.676Z,12.17
2018-10-17T12:36:26.491Z,12.27
2018-10-17T12:38:54.307Z,11.70
2018-10-17T12:41:22.916Z,13.20
2018-10-17T12:44:07.187Z,9.63
2018-10-17T12:46:36.067Z,11.97
2018-10-17T12:49:04.212Z,10.63
2018-10-17T12:51:31.925Z,15.07
2018-10-17T12:54:01.889Z,10.70
2018-10-17T12:56:29.631Z,12.47
2018-10-17T12:58:57.531Z,13.30
2018-10-17T13:01:25.247Z,11.60
2018-10-17T13:03:52.994Z,10.20
2018-10-17T13:06:20.759Z,11.87
2018-10-17T13:08:48.626Z,11.47
2018-10-17T13:11:16.480Z,8.67
2018-10-17T13:13:45.413Z,11.27
2018-10-17T13:16:13.191Z,11.07
2018-10-17T13:18:41.018Z,10.40
2018-10-17T13:21:09.028Z,13.03
2018-10-17T13:23:36.801Z,10.43
2018-10-17T13:26:04.989Z,10.50
2018-10-17T13:28:34.598Z,14.40
2018-10-17T13:31:02.447Z,13.33
2018-10-17T13:33:30.168Z,10.20
2018-10-17T13:35:57.947Z,12.07
2018-10-17T13:38:25.795Z,12.30
2018-10-17T13:40:53.584Z,13.60
2018-10-17T13:43:21.385Z,12.10
2018-10-17T13:45:49.255Z,12.73
2018-10-17T13:48:17.317Z,11.40
2018-10-17T13:50:45.152Z,13.13
2018-10-17T13:53:13.151Z,12.97
2018-10-17T13:55:40.973Z,14.40
2018-10-17T13:58:08.866Z,15.13
2018-10-17T14:00:36.741Z,10.23
2018-10-17T14:03:04.541Z,11.60
2018-10-17T14:05:32.377Z,10.67
2018-10-17T14:08:00.192Z,11.47
2018-10-17T14:10:28.035Z,9.80
2018-10-17T14:12:55.845Z,12.83
2018-10-17T14:15:23.747Z,11.13
2018-10-17T14:17:52.746Z,12.00
2018-10-17T14:20:20.563Z,14.37
2018-10-17T14:22:48.601Z,13.13
2018-10-17T14:25:20.172Z,13.73
2018-10-17T14:27:47.992Z,12.97
2018-10-17T14:30:15.783Z,10.10
2018-10-17T14:32:43.599Z,11.50
2018-10-17T14:35:13.117Z,12.63
2018-10-17T14:37:43.058Z,9.80
2018-10-17T14:40:10.873Z,11.17
2018-10-17T14:45:07.580Z,8.83
2018-10-17T14:47:35.922Z,12.03
2018-10-17T14:50:05.072Z,11.03
2018-10-17T14:52:33.987Z,14.83
2018-10-17T14:55:01.983Z,11.80
2018-10-17T14:57:30.585Z,13.70
2018-10-17T14:59:58.673Z,13.33
2018-10-17T15:02:31.107Z,13.87
2018-10-17T15:04:59.076Z,13.07
2018-10-17T15:07:27.045Z,16.20
2018-10-17T15:09:54.958Z,13.37
2018-10-17T15:12:22.898Z,11.67
2018-10-17T15:14:50.772Z,12.97
2018-10-17T15:17:18.629Z,12.07
2018-10-17T15:19:46.595Z,18.83
2018-10-17T15:22:14.545Z,13.90
2018-10-17T15:24:42.377Z,14.73
2018-10-17T15:27:10.164Z,15.13
2018-10-17T15:29:37.969Z,14.93
2018-10-17T15:32:05.819Z,13.83
2018-10-17T15:34:33.614Z,13.50
2018-10-17T15:37:01.569Z,13.60
2018-10-17T15:39:29.252Z,12.17
2018-10-17T15:41:57.151Z,18.07
2018-10-17T15:44:24.938Z,13.57
2018-10-17T15:46:53.354Z,14.60
2018-10-17T15:49:21.264Z,13.77
2018-10-17T15:51:49.063Z,13.53
2018-10-17T15:54:16.975Z,13.30
2018-10-17T15:56:44.709Z,13.57
2018-10-17T15:59:12.492Z,14.27
2018-10-17T16:01:40.378Z,13.13
2018-10-17T16:04:08.743Z,12.67
2018-10-17T16:06:36.576Z,12.13
2018-10-17T16:09:08.479Z,11.70
2018-10-17T16:11:36.377Z,11.37
2018-10-17T16:14:04.422Z,11.27
2018-10-17T16:16:32.241Z,11.07
2018-10-17T16:19:00.204Z,12.03
2018-10-17T16:21:28.409Z,11.00
2018-10-17T16:23:56.342Z,9.37
2018-10-17T16:26:25.142Z,9.20
2018-10-17T16:28:53.037Z,9.30
2018-10-17T16:31:20.930Z,10.63
2018-10-17T16:33:48.869Z,10.63
2018-10-17T16:36:16.855Z,10.00
2018-10-17T16:38:44.607Z,10.57
2018-10-17T16:41:12.520Z,9.67
2018-10-17T16:43:40.396Z,10.10
2018-10-17T16:46:08.344Z,10.57
2018-10-17T16:48:38.268Z,10.07
2018-10-17T16:51:06.242Z,9.60
2018-10-17T16:53:34.148Z,12.73
2018-10-17T16:56:01.929Z,15.87
2018-10-17T16:58:29.864Z,18.57
2018-10-17T17:00:57.672Z,20.23
2018-10-17T17:03:25.609Z,16.67
2018-10-17T17:05:54.550Z,16.30
2018-10-17T17:08:22.475Z,19.67
2018-10-17T17:10:50.279Z,19.77
2018-10-17T17:13:18.297Z,16.47
2018-10-17T17:15:46.409Z,17.57
2018-10-17T17:18:14.313Z,18.13
2018-10-17T17:20:42.334Z,15.93
2018-10-17T17:23:10.179Z,14.57
2018-10-17T17:25:38.424Z,19.07
2018-10-17T17:28:06.294Z,13.20
2018-10-17T17:30:34.181Z,14.37
2018-10-17T17:33:02.165Z,13.27
2018-10-17T17:35:31.278Z,12.40
2018-10-17T17:37:59.113Z,13.67
2018-10-17T17:40:27.038Z,11.60
2018-10-17T17:42:54.801Z,14.30
2018-10-17T17:45:22.575Z,10.77
2018-10-17T17:47:50.500Z,12.50
2018-10-17T17:50:18.359Z,12.73
2018-10-17T17:52:46.308Z,10.27
2018-10-17T17:55:14.106Z,10.73
2018-10-17T17:57:41.899Z,10.90
2018-10-17T18:00:10.582Z,12.70
2018-10-17T18:02:38.426Z,10.27
2018-10-17T18:05:07.579Z,10.87
2018-10-17T18:07:35.621Z,9.43
2018-10-17T18:10:03.696Z,10.30
2018-10-17T18:12:31.460Z,9.17
2018-10-17T18:14:59.431Z,11.40
2018-10-17T18:17:27.348Z,13.47
2018-10-17T18:19:55.250Z,9.30
2018-10-17T18:22:23.153Z,9.73
2018-10-17T18:24:50.932Z,10.67
2018-10-17T18:27:18.901Z,8.90
2018-10-17T18:29:47.873Z,10.87
2018-10-17T18:32:16.346Z,9.90
2018-10-17T18:34:44.251Z,10.10
2018-10-17T18:37:13.131Z,11.03
2018-10-17T18:39:41.641Z,9.20
2018-10-17T18:42:09.552Z,10.33
2018-10-17T18:44:38.308Z,9.73
2018-10-17T18:47:06.279Z,9.33
2018-10-17T18:49:34.164Z,8.13
2018-10-17T18:52:02.113Z,9.20
2018-10-17T18:54:29.928Z,11.03
2018-10-17T18:56:58.220Z,7.77
2018-10-17T18:59:30.793Z,13.27
2018-10-17T19:01:58.669Z,7.37
2018-10-17T19:04:26.750Z,7.10
2018-10-17T19:06:55.219Z,8.23
2018-10-17T19:09:23.042Z,7.57
2018-10-17T19:11:51.083Z,7.67
2018-10-17T19:14:18.927Z,10.17
2018-10-17T19:19:24.427Z,7.47
2018-10-17T19:21:54.267Z,10.17
2018-10-17T19:24:26.089Z,6.83
2018-10-17T19:26:54.066Z,8.23
2018-10-17T19:29:23.672Z,7.53
2018-10-17T19:31:51.548Z,8.53
2018-10-17T19:34:23.372Z,8.10
2018-10-17T19:36:51.240Z,8.33
2018-10-17T19:39:19.118Z,7.37
2018-10-17T19:41:53.618Z,7.53
2018-10-17T19:44:23.637Z,8.73
2018-10-17T19:46:51.849Z,6.90
2018-10-17T19:49:21.254Z,6.90
2018-10-17T19:51:51.335Z,7.60
2018-10-17T19:54:19.247Z,8.90
2018-10-17T19:56:47.145Z,8.37
2018-10-17T19:59:15.100Z,6.77
2018-10-17T20:01:43.917Z,7.10
2018-10-17T20:04:13.925Z,7.97
2018-10-17T20:06:41.794Z,8.50
2018-10-17T20:09:10.574Z,7.67
2018-10-17T20:11:38.360Z,8.37
2018-10-17T20:14:08.146Z,6.10
2018-10-17T20:16:35.954Z,7.17
2018-10-17T20:19:03.919Z,8.80
2018-10-17T20:21:32.111Z,7.53
2018-10-17T20:24:00.479Z,9.63
2018-10-17T20:26:28.348Z,7.20
2018-10-17T20:28:56.996Z,7.20
2018-10-17T20:31:24.800Z,8.17
2018-10-17T20:33:52.641Z,7.27
2018-10-17T20:36:20.511Z,11.10
2018-10-17T20:38:48.331Z,8.53
2018-10-17T20:41:16.155Z,7.37
2018-10-17T20:43:44.980Z,7.23
2018-10-17T20:46:12.851Z,7.93
2018-10-17T20:48:40.614Z,9.33
2018-10-17T20:51:09.485Z,6.97
2018-10-17T20:53:37.271Z,7.73
2018-10-17T20:56:05.169Z,10.13
2018-10-17T20:58:33.613Z,10.53
2018-10-17T21:01:01.428Z,10.37
2018-10-17T21:03:30.083Z,7.50
2018-10-17T21:05:57.990Z,9.47
2018-10-17T21:08:25.777Z,7.37
2018-10-17T21:10:53.636Z,7.90
2018-10-17T21:13:21.481Z,10.77
2018-10-17T21:15:49.908Z,8.80
2018-10-17T21:18:17.699Z,9.97
2018-10-17T21:20:45.532Z,8.87
2018-10-17T21:23:13.410Z,9.17
2018-10-17T21:25:41.297Z,7.50
2018-10-17T21:28:09.110Z,11.50
2018-10-17T21:30:37.274Z,9.97
2018-10-17T21:33:05.539Z,10.93
2018-10-17T21:35:33.338Z,8.27
2018-10-17T21:38:01.146Z,8.30
2018-10-17T21:40:29.093Z,7.87
2018-10-17T21:42:57.030Z,9.23
2018-10-17T21:45:25.274Z,8.43
2018-10-17T21:47:54.592Z,8.80
2018-10-17T21:50:22.421Z,9.13
2018-10-17T21:52:50.195Z,7.83
2018-10-17T21:55:18.068Z,9.47
2018-10-17T21:57:45.887Z,10.67
2018-10-17T22:00:14.739Z,9.57
2018-10-17T22:02:42.553Z,10.40
2018-10-17T22:05:10.837Z,9.00
2018-10-17T22:07:38.661Z,12.30
2018-10-17T22:10:07.220Z,11.27
2018-10-17T22:12:35.043Z,9.23
2018-10-17T22:15:02.878Z,9.30
2018-10-17T22:17:30.649Z,10.60
2018-10-17T22:19:58.469Z,11.23
2018-10-17T22:22:26.615Z,10.10
2018-10-17T22:24:55.119Z,10.87
2018-10-17T22:27:22.939Z,10.00
2018-10-17T22:29:50.996Z,10.83
2018-10-17T22:32:18.802Z,11.20
2018-10-17T22:34:46.616Z,11.13
2018-10-17T22:37:15.156Z,10.00
2018-10-17T22:39:42.916Z,11.13
2018-10-17T22:42:10.679Z,8.90
2018-10-17T22:44:38.519Z,10.93
2018-10-17T22:47:07.018Z,11.20
2018-10-17T22:49:35.714Z,8.83
2018-10-17T22:52:03.594Z,10.73
2018-10-17T22:54:31.411Z,9.57
2018-10-17T22:56:59.273Z,10.23
2018-10-17T22:59:27.122Z,8.93
2018-10-17T23:01:55.004Z,10.50
2018-10-17T23:04:22.828Z,8.90
2018-10-17T23:06:50.578Z,10.30
2018-10-17T23:09:18.386Z,8.97
2018-10-17T23:11:46.197Z,10.27
2018-10-17T23:14:14.056Z,9.83
2018-10-17T23:16:42.196Z,11.17
2018-10-17T23:19:10.915Z,10.00
2018-10-17T23:21:39.581Z,9.10
2018-10-17T23:24:07.425Z,10.87
2018-10-17T23:26:35.206Z,10.83
2018-10-17T23:29:03.022Z,12.10
2018-10-17T23:31:30.793Z,10.67
2018-10-17T23:33:58.565Z,12.90
2018-10-17T23:36:26.764Z,9.90
2018-10-17T23:38:54.572Z,12.70
2018-10-17T23:41:22.398Z,11.70
2018-10-17T23:43:50.182Z,12.83
2018-10-17T23:46:17.966Z,13.50
2018-10-17T23:48:45.706Z,12.60
2018-10-17T23:51:13.484Z,12.23
2018-10-17T23:53:41.523Z,12.00
2018-10-17T23:56:09.507Z,13.43
2018-10-17T23:58:37.292Z,15.03
